Time;durP1;ratioP1;P1;durP2;ratioP2;P2;SDS_P1;SDS_P2;PMS_P1;PMS_P2;Temp;Humidity;BMP_temperature;BMP_pressure;BME280_temperature;BME280_humidity;BME280_pressure;Samples;Min_cycle;Max_cycle;Signal;HPM_P1;HPM_P2
2022/03/27 00:01:30;;;;;;;3.03;2.72;;;7.90;99.90;;;;;;5015000;28;20085;-67
2022/03/27 00:03:55;;;;;;;5.60;2.80;;;8.00;99.90;;;;;;4988365;28;20215;-67
2022/03/27 00:06:21;;;;;;;4.68;3.08;;;8.00;99.90;;;;;;5006942;28;20045;-67
2022/03/27 00:08:46;;;;;;;5.40;3.20;;;8.00;99.90;;;;;;4992253;28;20062;-67
2022/03/27 00:11:24;;;;;;;5.80;3.55;;;8.00;99.90;;;;;;4993778;28;20164;-67
2022/03/27 00:13:54;;;;;;;6.78;3.90;;;8.00;99.90;;;;;;4995545;28;20045;-68
2022/03/27 00:16:20;;;;;;;8.93;3.60;;;7.90;99.90;;;;;;4992814;28;20041;-67
2022/03/27 00:18:46;;;;;;;4.38;2.80;;;7.90;99.90;;;;;;4991829;28;20064;-67
2022/03/27 00:21:12;;;;;;;4.78;3.40;;;7.90;99.90;;;;;;5009945;28;20050;-67
2022/03/27 00:23:37;;;;;;;5.10;3.38;;;7.10;99.90;;;;;;5009607;28;20042;-67
2022/03/27 00:26:03;;;;;;;6.47;4.00;;;7.90;99.90;;;;;;5012920;28;20122;-67
2022/03/27 00:28:32;;;;;;;3.75;3.17;;;7.80;99.90;;;;;;5011565;28;20041;-67
2022/03/27 00:31:04;;;;;;;5.82;3.45;;;7.90;99.90;;;;;;5008565;28;21114;-67
2022/03/27 00:33:30;;;;;;;7.65;4.05;;;7.90;99.90;;;;;;5012502;28;20265;-67
2022/03/27 00:35:55;;;;;;;3.63;3.08;;;7.80;99.90;;;;;;4992801;28;20092;-68
2022/03/27 00:38:21;;;;;;;5.30;3.72;;;7.80;99.90;;;;;;5006465;28;20037;-67
2022/03/27 00:40:49;;;;;;;4.45;3.35;;;7.80;99.90;;;;;;4997245;28;20196;-67
2022/03/27 00:43:16;;;;;;;4.68;3.63;;;7.80;99.90;;;;;;5017174;28;20049;-67
2022/03/27 00:45:41;;;;;;;3.20;2.90;;;7.80;99.90;;;;;;5013911;28;20049;-67
2022/03/27 00:48:07;;;;;;;5.90;3.67;;;7.90;99.90;;;;;;5016892;28;20048;-67
2022/03/27 00:50:33;;;;;;;3.97;3.33;;;7.90;99.90;;;;;;4996934;28;20046;-68
2022/03/27 00:52:58;;;;;;;4.43;3.40;;;7.90;99.90;;;;;;5000157;28;20132;-67
2022/03/27 00:55:24;;;;;;;5.15;2.80;;;7.90;99.90;;;;;;4996092;28;20049;-67
2022/03/27 00:57:50;;;;;;;5.78;3.47;;;7.90;99.90;;;;;;5000692;28;20083;-67
2022/03/27 01:00:42;;;;;;;4.30;2.97;;;7.90;99.90;;;;;;5015093;28;20060;-67
2022/03/27 01:03:14;;;;;;;3.42;3.13;;;7.90;99.90;;;;;;4978298;28;20053;-67
2022/03/27 01:05:41;;;;;;;3.97;2.90;;;7.90;99.90;;;;;;4995526;28;20057;-67
2022/03/27 01:08:09;;;;;;;4.18;3.03;;;7.90;99.90;;;;;;5017250;28;20111;-67
2022/03/27 01:10:35;;;;;;;4.13;3.40;;;7.90;99.90;;;;;;5013529;28;20188;-67
2022/03/27 01:13:12;;;;;;;6.22;3.05;;;7.80;99.90;;;;;;4998627;28;20045;-67
2022/03/27 01:15:51;;;;;;;5.95;3.08;;;7.80;99.90;;;;;;5013080;28;20071;-68
2022/03/27 01:18:17;;;;;;;5.47;3.38;;;7.80;99.90;;;;;;4997570;28;20376;-67
2022/03/27 01:20:43;;;;;;;8.23;3.38;;;7.80;99.90;;;;;;5001385;28;20067;-67
2022/03/27 01:23:11;;;;;;;3.83;3.03;;;7.90;99.90;;;;;;5014270;28;20036;-67
2022/03/27 01:25:37;;;;;;;6.43;3.88;;;7.90;99.90;;;;;;5017338;28;20072;-67
2022/03/27 01:28:03;;;;;;;5.65;2.80;;;7.90;99.90;;;;;;4998506;28;20053;-67
2022/03/27 01:30:29;;;;;;;5.40;3.53;;;8.00;99.90;;;;;;4996989;28;20049;-67
2022/03/27 01:32:55;;;;;;;6.45;4.13;;;8.00;99.90;;;;;;5014679;28;20859;-68
2022/03/27 01:35:22;;;;;;;8.82;3.08;;;8.00;99.90;;;;;;5016022;28;20053;-67
2022/03/27 01:37:48;;;;;;;5.65;3.58;;;8.00;99.90;;;;;;5024121;28;20051;-68
2022/03/27 01:40:15;;;;;;;7.82;4.13;;;8.00;99.90;;;;;;5017968;28;20688;-67
2022/03/27 01:42:40;;;;;;;8.13;4.03;;;8.00;99.90;;;;;;5027627;28;20052;-67
2022/03/27 01:45:06;;;;;;;7.07;4.05;;;8.00;99.90;;;;;;5035235;28;20080;-67
2022/03/27 01:47:32;;;;;;;8.00;3.88;;;8.00;99.90;;;;;;5026621;28;20026;-67
2022/03/27 01:50:00;;;;;;;5.30;3.88;;;8.00;99.90;;;;;;5023889;28;20056;-67
2022/03/27 01:52:26;;;;;;;5.40;3.13;;;8.00;99.90;;;;;;5001059;28;20606;-67
2022/03/27 01:54:51;;;;;;;6.40;3.97;;;8.00;99.90;;;;;;5024044;28;20178;-68
2022/03/27 01:57:17;;;;;;;8.40;4.25;;;8.00;99.90;;;;;;5000937;28;20041;-67
2022/03/27 01:59:42;;;;;;;8.45;4.43;;;8.00;99.90;;;;;;5027623;28;20404;-67
2022/03/27 02:02:08;;;;;;;7.95;4.68;;;8.00;99.90;;;;;;5012686;28;20158;-67
2022/03/27 02:04:34;;;;;;;6.45;4.20;;;7.90;99.90;;;;;;5008739;28;20095;-67
2022/03/27 02:07:00;;;;;;;6.35;4.30;;;7.80;99.90;;;;;;5035314;28;20530;-67
2022/03/27 02:09:25;;;;;;;9.80;5.65;;;7.80;99.90;;;;;;5007924;28;20828;-67
2022/03/27 02:11:51;;;;;;;6.55;3.83;;;7.90;99.90;;;;;;4998369;28;20077;-67
2022/03/27 02:14:16;;;;;;;8.20;4.13;;;7.80;99.90;;;;;;5024810;28;20080;-67
2022/03/27 02:16:42;;;;;;;10.30;4.85;;;7.80;99.90;;;;;;5017287;28;20050;-67
2022/03/27 02:19:09;;;;;;;9.45;5.18;;;7.80;99.90;;;;;;5019155;28;20061;-67
2022/03/27 02:21:39;;;;;;;9.45;4.28;;;7.80;99.90;;;;;;5026564;28;20053;-67
2022/03/27 02:24:05;;;;;;;9.95;4.68;;;7.70;99.90;;;;;;4999927;28;20038;-68
2022/03/27 02:26:31;;;;;;;6.22;4.25;;;7.70;99.90;;;;;;5023131;28;20056;-68
2022/03/27 02:28:57;;;;;;;10.30;5.10;;;7.70;99.90;;;;;;5033226;28;20041;-68
2022/03/27 02:31:23;;;;;;;8.07;3.70;;;7.70;99.90;;;;;;5027709;28;20702;-68
2022/03/27 02:33:48;;;;;;;9.57;4.90;;;7.70;99.90;;;;;;5003944;28;20144;-68
2022/03/27 02:36:15;;;;;;;6.75;4.45;;;7.70;99.90;;;;;;5017743;28;20158;-68
2022/03/27 02:38:41;;;;;;;9.88;4.63;;;7.70;99.90;;;;;;5005390;28;20089;-68
2022/03/27 02:41:07;;;;;;;11.48;4.82;;;7.60;99.90;;;;;;5014597;28;20203;-68
2022/03/27 02:43:33;;;;;;;9.20;6.13;;;7.60;99.90;;;;;;5021868;28;20571;-68
2022/03/27 02:45:59;;;;;;;13.05;6.40;;;7.60;99.90;;;;;;5024450;28;20882;-68
2022/03/27 02:48:26;;;;;;;11.77;4.72;;;7.50;99.90;;;;;;5024267;28;20049;-68
2022/03/27 02:50:51;;;;;;;11.40;5.40;;;7.50;99.90;;;;;;4998322;28;20056;-68
2022/03/27 02:53:17;;;;;;;11.10;4.72;;;7.60;99.90;;;;;;5001445;28;20396;-68
2022/03/27 02:55:42;;;;;;;7.82;4.80;;;7.60;99.90;;;;;;5004332;28;20148;-68
2022/03/27 02:58:09;;;;;;;7.18;4.80;;;7.60;99.90;;;;;;5017050;28;20668;-68
2022/03/27 03:00:35;;;;;;;10.23;4.25;;;7.60;99.90;;;;;;5023486;28;20099;-68
2022/03/27 03:03:00;;;;;;;8.05;4.35;;;7.60;99.90;;;;;;5015320;28;20485;-68
2022/03/27 03:05:26;;;;;;;5.95;3.95;;;7.70;99.90;;;;;;5026439;28;20887;-67
2022/03/27 03:07:52;;;;;;;9.13;4.90;;;7.70;99.90;;;;;;5015099;28;20057;-68
2022/03/27 03:10:18;;;;;;;12.48;4.45;;;7.70;99.90;;;;;;5008200;28;20053;-68
2022/03/27 03:12:44;;;;;;;11.13;4.78;;;7.70;99.90;;;;;;5014222;28;20068;-68
2022/03/27 03:15:10;;;;;;;8.70;3.83;;;7.70;99.90;;;;;;5021555;28;20775;-68
2022/03/27 03:17:37;;;;;;;10.10;6.00;;;7.70;99.90;;;;;;5011734;28;20042;-68
2022/03/27 03:20:03;;;;;;;10.63;5.75;;;7.70;99.90;;;;;;5022886;28;20664;-68
2022/03/27 03:22:29;;;;;;;10.20;5.18;;;7.70;99.90;;;;;;5016646;28;20041;-68
2022/03/27 03:24:54;;;;;;;7.90;5.57;;;7.70;99.90;;;;;;5023897;28;20049;-68
2022/03/27 03:27:20;;;;;;;9.07;5.68;;;7.70;99.90;;;;;;4996723;28;20057;-68
2022/03/27 03:29:46;;;;;;;19.35;5.75;;;7.70;99.90;;;;;;5026578;28;20055;-68
2022/03/27 03:32:11;;;;;;;9.30;4.55;;;7.70;99.90;;;;;;4997022;28;20045;-68
2022/03/27 03:34:37;;;;;;;12.02;5.10;;;7.70;99.90;;;;;;5003282;28;20140;-68
2022/03/27 03:37:03;;;;;;;11.20;4.47;;;7.70;99.90;;;;;;5019193;28;20061;-68
2022/03/27 03:39:29;;;;;;;18.25;7.75;;;7.60;99.90;;;;;;5018790;28;20041;-68
2022/03/27 03:41:55;;;;;;;14.30;6.28;;;7.50;99.90;;;;;;5025224;28;20053;-68
2022/03/27 03:44:20;;;;;;;12.38;5.78;;;7.50;99.90;;;;;;5018643;28;20047;-68
2022/03/27 03:46:46;;;;;;;12.23;6.68;;;7.50;99.90;;;;;;5027456;28;20080;-68
2022/03/27 03:49:12;;;;;;;8.85;5.40;;;7.40;99.90;;;;;;4999572;28;20879;-68
2022/03/27 03:51:38;;;;;;;14.43;6.30;;;7.40;99.90;;;;;;5029266;28;20052;-68
2022/03/27 03:54:07;;;;;;;14.00;7.07;;;7.30;99.90;;;;;;5016994;28;20045;-68
2022/03/27 03:56:34;;;;;;;8.25;4.80;;;7.40;99.90;;;;;;5005812;28;20717;-68
2022/03/27 03:58:59;;;;;;;12.88;7.05;;;7.40;99.90;;;;;;5022466;28;20041;-67
2022/03/27 04:01:25;;;;;;;18.00;7.13;;;7.30;99.90;;;;;;5002684;28;20053;-67
2022/03/27 04:03:50;;;;;;;16.30;6.82;;;7.30;99.90;;;;;;5026273;28;20046;-67
2022/03/27 04:06:16;;;;;;;18.27;7.15;;;7.30;99.90;;;;;;5008764;28;20041;-68
2022/03/27 04:08:42;;;;;;;17.58;6.07;;;7.20;99.90;;;;;;5026299;28;20063;-68
2022/03/27 04:11:07;;;;;;;68.18;10.85;;;7.20;99.90;;;;;;5007628;28;20061;-68
2022/03/27 04:13:33;;;;;;;28.58;6.97;;;7.10;99.90;;;;;;5017547;28;20558;-68
2022/03/27 04:16:00;;;;;;;32.65;6.93;;;7.00;99.90;;;;;;5003847;28;20057;-68
2022/03/27 04:18:26;;;;;;;14.52;5.45;;;7.00;99.90;;;;;;5017755;28;20864;-67
2022/03/27 04:20:51;;;;;;;55.28;8.57;;;7.00;99.90;;;;;;5024783;28;20057;-68
2022/03/27 04:23:17;;;;;;;14.20;6.63;;;7.00;99.90;;;;;;5019459;28;20071;-67
2022/03/27 04:25:43;;;;;;;41.30;8.55;;;7.00;99.90;;;;;;5006832;28;20053;-68
2022/03/27 04:28:10;;;;;;;16.40;5.93;;;7.00;99.90;;;;;;5018162;28;20730;-68
2022/03/27 04:30:37;;;;;;;40.97;8.57;;;7.00;99.90;;;;;;5026217;28;20145;-67
2022/03/27 04:33:03;;;;;;;20.05;6.82;;;7.00;99.90;;;;;;4998834;28;20064;-67
2022/03/27 04:35:28;;;;;;;17.02;6.25;;;7.00;99.90;;;;;;4991078;28;20492;-67
2022/03/27 04:37:54;;;;;;;20.15;6.80;;;7.00;99.90;;;;;;5017831;28;20053;-68
2022/03/27 04:40:20;;;;;;;60.75;9.60;;;7.00;99.90;;;;;;5028238;28;20045;-68
2022/03/27 04:42:45;;;;;;;58.13;9.40;;;7.00;99.90;;;;;;5003331;28;20060;-68
2022/03/27 04:45:12;;;;;;;38.80;8.07;;;6.90;99.90;;;;;;5000514;28;20037;-68
2022/03/27 04:47:38;;;;;;;52.00;9.15;;;6.80;99.90;;;;;;5007040;28;20500;-68
2022/03/27 04:50:05;;;;;;;19.13;6.80;;;6.80;99.90;;;;;;4998545;28;20155;-67
2022/03/27 04:52:31;;;;;;;9.73;5.82;;;6.80;99.90;;;;;;5027237;28;20088;-68
2022/03/27 04:54:57;;;;;;;18.15;7.53;;;6.80;99.90;;;;;;4998258;28;20041;-67
2022/03/27 04:57:23;;;;;;;29.02;6.65;;;6.80;99.90;;;;;;5026465;28;20822;-67
2022/03/27 04:59:48;;;;;;;11.18;5.05;;;6.80;99.90;;;;;;4998818;28;20528;-68
2022/03/27 05:02:14;;;;;;;12.20;5.22;;;6.80;99.90;;;;;;5022112;28;20041;-68
2022/03/27 05:04:41;;;;;;;16.45;7.38;;;6.80;99.90;;;;;;5021134;28;20065;-68
2022/03/27 05:07:07;;;;;;;24.10;8.80;;;6.90;99.90;;;;;;5030126;28;20055;-67
2022/03/27 05:09:32;;;;;;;20.55;6.50;;;6.90;99.90;;;;;;5023183;28;20049;-67
2022/03/27 05:11:58;;;;;;;12.38;6.70;;;6.80;99.90;;;;;;5022255;28;20179;-68
2022/03/27 05:14:23;;;;;;;19.17;5.43;;;6.90;99.90;;;;;;5019189;28;20037;-68
2022/03/27 05:16:49;;;;;;;35.95;8.18;;;6.80;99.90;;;;;;5024675;28;20088;-68
2022/03/27 05:19:14;;;;;;;12.65;6.90;;;6.80;99.90;;;;;;5016845;28;20073;-68
2022/03/27 05:21:40;;;;;;;11.13;5.65;;;6.80;99.90;;;;;;5005424;28;20070;-68
2022/03/27 05:24:08;;;;;;;12.48;5.32;;;6.80;99.90;;;;;;5025070;28;20049;-67
2022/03/27 05:26:37;;;;;;;19.67;7.28;;;6.80;99.90;;;;;;5016043;28;20132;-67
2022/03/27 05:29:06;;;;;;;9.52;5.45;;;6.80;99.90;;;;;;5016068;28;20049;-68
2022/03/27 05:31:32;;;;;;;49.20;10.02;;;6.80;99.90;;;;;;5015463;28;20115;-68
2022/03/27 05:33:57;;;;;;;18.50;6.30;;;6.70;99.90;;;;;;4997385;28;20439;-67
2022/03/27 05:36:23;;;;;;;27.85;7.88;;;6.70;99.90;;;;;;5016055;28;20845;-68
2022/03/27 05:38:49;;;;;;;23.23;8.38;;;6.60;99.90;;;;;;5015254;28;20053;-68
2022/03/27 05:41:15;;;;;;;23.65;7.03;;;6.60;99.90;;;;;;4997910;28;20716;-68
2022/03/27 05:43:41;;;;;;;25.25;7.45;;;6.60;99.90;;;;;;4998377;28;20137;-67
2022/03/27 05:46:07;;;;;;;12.52;6.65;;;6.60;99.90;;;;;;5016168;28;20065;-67
2022/03/27 05:48:33;;;;;;;18.10;6.18;;;6.60;99.90;;;;;;5014854;28;20049;-68
2022/03/27 05:50:58;;;;;;;16.58;6.00;;;6.60;99.90;;;;;;5013309;28;20073;-68
2022/03/27 05:53:24;;;;;;;14.57;6.30;;;6.70;99.90;;;;;;4994961;28;20080;-67
2022/03/27 05:55:49;;;;;;;10.77;6.18;;;6.70;99.90;;;;;;5013683;28;20159;-68
2022/03/27 05:58:16;;;;;;;16.65;7.05;;;6.80;99.90;;;;;;5012872;28;20049;-68
2022/03/27 06:00:42;;;;;;;15.20;6.05;;;6.80;99.90;;;;;;5014742;28;20088;-67
2022/03/27 06:03:07;;;;;;;13.70;5.82;;;6.90;99.90;;;;;;5021185;28;20546;-68
2022/03/27 06:05:33;;;;;;;15.38;6.53;;;6.90;99.90;;;;;;5019748;28;20845;-68
2022/03/27 06:07:59;;;;;;;11.25;5.20;;;7.00;99.90;;;;;;5027150;28;20486;-67
2022/03/27 06:10:28;;;;;;;11.25;5.60;;;7.10;99.90;;;;;;5004723;28;20118;-68
2022/03/27 06:12:54;;;;;;;14.10;5.97;;;7.10;99.90;;;;;;5024283;28;20041;-68
2022/03/27 06:15:21;;;;;;;17.73;6.80;;;7.10;99.90;;;;;;4994632;28;20045;-68
2022/03/27 06:17:48;;;;;;;19.33;8.95;;;7.10;99.90;;;;;;4994810;28;20095;-68
2022/03/27 06:20:22;;;;;;;14.07;6.03;;;7.10;99.90;;;;;;5012330;28;20133;-68
2022/03/27 06:22:49;;;;;;;9.50;6.45;;;7.20;99.90;;;;;;5012689;28;20111;-68
2022/03/27 06:25:21;;;;;;;10.48;4.75;;;7.20;99.90;;;;;;5012596;28;20060;-68
2022/03/27 06:27:48;;;;;;;14.95;5.65;;;7.10;99.90;;;;;;5004686;28;20506;-68
2022/03/27 06:30:17;;;;;;;11.93;5.13;;;7.10;99.90;;;;;;5011446;28;20045;-68
2022/03/27 06:32:44;;;;;;;15.50;6.32;;;7.10;99.90;;;;;;4994100;28;20080;-68
2022/03/27 06:35:11;;;;;;;11.60;5.30;;;7.10;99.90;;;;;;4995001;28;20088;-68
2022/03/27 06:37:37;;;;;;;22.45;7.03;;;7.10;99.90;;;;;;5011953;28;20045;-68
2022/03/27 06:40:03;;;;;;;19.70;7.07;;;7.10;99.90;;;;;;5012847;28;20664;-67
2022/03/27 06:42:29;;;;;;;22.33;6.05;;;7.10;99.90;;;;;;5010863;28;20053;-68
2022/03/27 06:44:55;;;;;;;13.25;5.45;;;7.20;99.90;;;;;;5007531;28;20041;-68
2022/03/27 06:47:23;;;;;;;17.90;6.35;;;7.20;99.90;;;;;;5010756;28;20073;-68
2022/03/27 06:49:49;;;;;;;14.68;6.70;;;7.30;99.90;;;;;;4992933;28;20063;-68
2022/03/27 06:52:16;;;;;;;14.20;5.90;;;7.30;99.90;;;;;;4992241;28;20055;-68
2022/03/27 06:54:43;;;;;;;14.27;5.78;;;6.70;99.90;;;;;;5010777;28;20458;-68
2022/03/27 06:57:09;;;;;;;8.65;5.03;;;7.50;99.90;;;;;;4992448;28;20096;-68
2022/03/27 07:05:05;;;;;;;17.88;6.88;;;7.80;99.90;;;;;;5017299;28;20060;-68
2022/03/27 07:07:31;;;;;;;25.13;7.43;;;7.90;99.90;;;;;;5011842;28;20045;-68
2022/03/27 07:09:56;;;;;;;24.38;8.32;;;7.70;99.90;;;;;;5017813;28;20052;-68
2022/03/27 07:12:22;;;;;;;23.70;7.80;;;7.80;99.90;;;;;;5017319;28;20594;-68
2022/03/27 07:14:49;;;;;;;23.17;8.20;;;7.80;99.90;;;;;;4998871;28;20041;-68
2022/03/27 07:17:15;;;;;;;29.58;9.00;;;7.80;99.90;;;;;;5016253;28;20049;-68
2022/03/27 07:19:41;;;;;;;17.77;8.75;;;7.80;99.90;;;;;;5015781;28;20042;-68
2022/03/27 07:22:07;;;;;;;32.15;9.23;;;7.90;99.90;;;;;;5015700;28;20061;-68
2022/03/27 07:24:32;;;;;;;31.08;9.07;;;7.90;99.90;;;;;;5015379;28;20060;-68
2022/03/27 07:26:58;;;;;;;24.65;9.70;;;7.80;99.90;;;;;;5015067;28;20041;-68
2022/03/27 07:29:24;;;;;;;31.67;9.48;;;7.90;99.90;;;;;;4998013;28;20294;-67
2022/03/27 07:31:49;;;;;;;25.15;8.43;;;7.90;99.90;;;;;;5014954;28;20053;-68
2022/03/27 07:34:16;;;;;;;25.02;8.98;;;8.00;99.90;;;;;;5015704;28;20922;-67
2022/03/27 07:36:42;;;;;;;31.65;12.45;;;8.00;99.90;;;;;;4997536;28;20064;-67
2022/03/27 07:39:09;;;;;;;26.60;10.15;;;8.00;99.90;;;;;;5015412;28;20049;-68
2022/03/27 07:41:35;;;;;;;21.35;8.00;;;8.00;99.90;;;;;;5015751;28;20049;-68
2022/03/27 07:44:01;;;;;;;26.52;8.32;;;7.90;99.90;;;;;;4998156;28;20057;-68
2022/03/27 07:46:27;;;;;;;27.40;10.73;;;7.90;99.90;;;;;;5014835;28;20049;-68
2022/03/27 07:48:52;;;;;;;19.25;9.63;;;7.90;99.90;;;;;;5014955;28;20107;-68
2022/03/27 07:51:18;;;;;;;22.67;9.27;;;7.90;99.90;;;;;;5014957;28;20087;-68
2022/03/27 07:53:43;;;;;;;27.60;9.30;;;7.90;99.90;;;;;;5014664;28;20786;-68
2022/03/27 07:56:09;;;;;;;22.75;10.07;;;8.00;99.90;;;;;;5003057;28;20080;-67
2022/03/27 07:58:36;;;;;;;24.60;10.05;;;8.20;99.90;;;;;;5020409;28;20085;-68
2022/03/27 08:01:03;;;;;;;25.70;9.07;;;8.50;99.90;;;;;;5015343;28;20057;-67
2022/03/27 08:03:28;;;;;;;21.00;8.35;;;8.80;99.90;;;;;;5024545;28;20064;-68
2022/03/27 08:05:54;;;;;;;23.95;8.98;;;8.90;99.90;;;;;;5003530;28;20061;-68
2022/03/27 08:08:19;;;;;;;23.98;8.68;;;9.10;99.90;;;;;;5011967;28;20061;-68
2022/03/27 08:10:45;;;;;;;26.73;9.23;;;9.90;99.90;;;;;;5027379;28;20080;-68
2022/03/27 08:13:10;;;;;;;24.80;8.60;;;10.70;99.90;;;;;;5015155;28;20041;-68
2022/03/27 08:15:36;;;;;;;28.50;9.80;;;11.30;99.90;;;;;;5014480;28;20459;-68
2022/03/27 08:18:02;;;;;;;18.65;8.50;;;11.60;99.90;;;;;;4665305;28;9999822;-66
2022/03/27 08:20:27;;;;;;;22.33;7.55;;;11.90;99.90;;;;;;5014469;28;20099;-68
2022/03/27 08:22:54;;;;;;;23.65;8.30;;;12.20;99.90;;;;;;5000543;28;20087;-68
2022/03/27 08:28:06;;;;;;;20.95;7.40;;;12.20;99.90;;;;;;4648308;28;9999847;-68
2022/03/27 08:30:32;;;;;;;19.80;7.05;;;13.50;99.90;;;;;;4994843;28;20044;-67
2022/03/27 08:32:57;;;;;;;19.05;8.25;;;13.90;99.90;;;;;;5010703;28;20040;-68
2022/03/27 08:35:23;;;;;;;21.10;7.57;;;13.60;99.90;;;;;;5006310;28;20036;-68
2022/03/27 08:37:48;;;;;;;27.67;9.13;;;14.00;99.90;;;;;;4994372;28;20532;-68
2022/03/27 08:40:17;;;;;;;29.65;9.55;;;13.30;99.90;;;;;;5010859;28;20099;-65
2022/03/27 08:42:44;;;;;;;26.05;8.63;;;12.60;99.90;;;;;;5002526;28;20138;-66
2022/03/27 08:45:09;;;;;;;21.58;8.43;;;12.90;99.90;;;;;;5013571;28;20094;-67
2022/03/27 08:47:39;;;;;;;31.05;8.77;;;13.20;99.90;;;;;;4996900;28;20033;-66
2022/03/27 08:50:29;;;;;;;17.63;8.02;;;13.30;99.90;;;;;;4999709;28;20404;-67
2022/03/27 08:53:00;;;;;;;25.50;8.10;;;13.50;99.90;;;;;;4995365;28;20033;-65
2022/03/27 08:55:39;;;;;;;25.98;8.35;;;13.00;99.90;;;;;;5010828;28;20043;-66
2022/03/27 08:58:10;;;;;;;22.52;9.07;;;13.00;99.90;;;;;;4996551;28;20050;-67
2022/03/27 09:00:36;;;;;;;21.80;8.18;;;12.90;99.90;;;;;;5011997;28;20048;-67
2022/03/27 09:03:03;;;;;;;21.83;10.02;;;13.20;99.90;;;;;;4990078;28;20057;-67
2022/03/27 09:05:29;;;;;;;20.38;9.23;;;13.40;99.90;;;;;;5014279;28;20045;-67
2022/03/27 09:07:56;;;;;;;28.92;8.35;;;13.90;99.90;;;;;;5013687;28;20053;-67
2022/03/27 09:10:25;;;;;;;24.65;8.80;;;14.20;99.90;;;;;;4993780;28;20049;-67
2022/03/27 09:12:52;;;;;;;19.70;7.65;;;14.00;99.90;;;;;;5012171;28;21009;-66
2022/03/27 09:15:19;;;;;;;24.65;7.88;;;14.20;99.90;;;;;;5011480;28;20059;-67
2022/03/27 09:17:55;;;;;;;19.50;7.10;;;14.70;99.90;;;;;;4992776;28;20049;-67
2022/03/27 09:20:30;;;;;;;19.25;6.97;;;15.00;99.20;;;;;;5010388;28;20777;-67
2022/03/27 09:23:04;;;;;;;19.10;7.78;;;15.70;99.20;;;;;;5008979;28;20045;-67
2022/03/27 09:25:41;;;;;;;17.65;7.90;;;15.60;99.30;;;;;;4663489;28;10000564;-67
2022/03/27 09:28:06;;;;;;;22.80;7.40;;;16.30;99.20;;;;;;5009282;28;20041;-66
2022/03/27 09:30:36;;;;;;;17.48;6.28;;;16.50;97.50;;;;;;4995771;28;20049;-67
2022/03/27 09:33:02;;;;;;;23.48;8.23;;;16.50;98.10;;;;;;5004076;28;20049;-66
2022/03/27 09:35:28;;;;;;;17.55;8.23;;;16.80;97.50;;;;;;4993561;28;20052;-66
2022/03/27 09:37:54;;;;;;;16.10;6.97;;;17.00;94.60;;;;;;4993659;28;20066;-67
2022/03/27 09:40:20;;;;;;;15.20;6.10;;;16.20;96.20;;;;;;5010992;28;20080;-67
2022/03/27 09:42:47;;;;;;;22.98;7.93;;;16.70;96.60;;;;;;4993824;28;20041;-67
2022/03/27 09:45:17;;;;;;;18.75;7.68;;;16.70;96.60;;;;;;5011802;28;20148;-67
2022/03/27 09:47:46;;;;;;;18.17;7.30;;;16.80;92.10;;;;;;4993426;28;20111;-67
2022/03/27 09:50:28;;;;;;;21.42;7.95;;;16.80;95.70;;;;;;4993952;28;20049;-67
2022/03/27 09:53:14;;;;;;;19.35;6.55;;;17.20;92.70;;;;;;4993403;28;20081;-67
2022/03/27 09:55:39;;;;;;;20.52;7.18;;;17.60;95.00;;;;;;4993403;28;20629;-67
2022/03/27 09:58:07;;;;;;;16.77;7.55;;;18.20;94.50;;;;;;5018434;28;20041;-67
2022/03/27 10:00:33;;;;;;;18.45;6.28;;;18.00;92.80;;;;;;5022057;28;20040;-67
2022/03/27 10:03:09;;;;;;;20.10;7.35;;;17.90;93.50;;;;;;5027103;28;20049;-67
2022/03/27 10:05:37;;;;;;;21.75;7.45;;;17.50;90.70;;;;;;5005657;28;20822;-67
2022/03/27 10:08:02;;;;;;;17.10;6.90;;;17.20;91.20;;;;;;5018724;28;20835;-67
2022/03/27 10:10:28;;;;;;;18.95;7.18;;;17.90;93.10;;;;;;5012146;28;20053;-67
2022/03/27 10:12:56;;;;;;;18.17;6.93;;;17.20;91.00;;;;;;5012013;28;20869;-67
2022/03/27 10:15:27;;;;;;;19.95;7.78;;;16.90;91.60;;;;;;5014443;28;20045;-67
2022/03/27 10:18:00;;;;;;;20.55;7.47;;;17.30;91.80;;;;;;5014116;28;20417;-67
2022/03/27 10:20:32;;;;;;;13.85;6.82;;;17.80;91.80;;;;;;5015794;28;20132;-67
2022/03/27 10:23:09;;;;;;;20.23;7.07;;;18.20;88.20;;;;;;5015313;28;20410;-67
2022/03/27 10:25:45;;;;;;;20.77;8.07;;;18.40;86.00;;;;;;5016208;28;20045;-67
2022/03/27 10:28:11;;;;;;;20.27;9.13;;;17.50;86.80;;;;;;5015276;28;20048;-67
2022/03/27 10:30:38;;;;;;;19.20;6.95;;;17.80;91.10;;;;;;4996309;28;20049;-67
2022/03/27 10:33:06;;;;;;;12.98;6.90;;;18.40;86.50;;;;;;4996836;28;20068;-67
2022/03/27 10:36:03;;;;;;;23.90;6.70;;;19.20;87.70;;;;;;4995611;28;20094;-67
2022/03/27 10:38:50;;;;;;;22.95;7.25;;;18.90;77.70;;;;;;4997479;28;20063;-67
2022/03/27 10:41:42;;;;;;;16.30;6.82;;;18.30;78.20;;;;;;4997120;28;20060;-67
2022/03/27 10:44:22;;;;;;;15.57;6.07;;;18.40;81.60;;;;;;5015141;28;20042;-67
2022/03/27 10:47:10;;;;;;;15.70;6.53;;;19.10;84.60;;;;;;5015107;28;20148;-67
2022/03/27 10:49:36;;;;;;;17.58;7.38;;;19.30;77.60;;;;;;5018202;28;20037;-67
2022/03/27 10:52:05;;;;;;;12.88;7.28;;;19.00;83.40;;;;;;5018705;28;20045;-67
2022/03/27 10:54:31;;;;;;;20.23;6.70;;;17.00;80.30;;;;;;5019282;28;20578;-67
2022/03/27 10:56:58;;;;;;;17.20;7.65;;;16.30;89.80;;;;;;5000715;28;20065;-67
2022/03/27 10:59:26;;;;;;;15.75;7.07;;;15.40;90.70;;;;;;5019370;28;20897;-67
2022/03/27 11:01:58;;;;;;;20.55;7.65;;;14.70;91.00;;;;;;5019540;28;20065;-67
2022/03/27 11:04:41;;;;;;;14.60;6.40;;;14.20;90.90;;;;;;5001133;28;20045;-67
2022/03/27 11:07:15;;;;;;;19.13;7.10;;;14.00;92.30;;;;;;5023339;28;20127;-67
2022/03/27 11:09:44;;;;;;;18.13;7.30;;;13.60;93.10;;;;;;5036184;28;20498;-67
2022/03/27 11:12:22;;;;;;;21.20;8.55;;;13.40;94.10;;;;;;5013312;28;20084;-67
2022/03/27 11:15:00;;;;;;;18.95;6.13;;;13.10;93.30;;;;;;5001381;28;20099;-67
2022/03/27 11:17:30;;;;;;;16.00;5.78;;;13.20;94.20;;;;;;5001085;28;20092;-67
2022/03/27 11:19:56;;;;;;;18.38;7.60;;;13.30;93.80;;;;;;5019344;28;20057;-67
2022/03/27 11:22:43;;;;;;;15.77;6.50;;;13.30;93.30;;;;;;5019286;28;20046;-66
2022/03/27 11:25:36;;;;;;;17.55;7.13;;;13.20;93.00;;;;;;5018289;28;20056;-66
2022/03/27 11:28:09;;;;;;;12.70;5.37;;;13.30;93.50;;;;;;5001245;28;20053;-66
2022/03/27 11:30:55;;;;;;;13.13;5.93;;;13.30;93.30;;;;;;5000675;28;20288;-67
2022/03/27 11:33:25;;;;;;;13.77;6.50;;;13.40;93.30;;;;;;5017050;28;20048;-66
2022/03/27 11:36:09;;;;;;;16.65;6.72;;;13.20;92.60;;;;;;5019039;28;20528;-67
2022/03/27 11:38:51;;;;;;;18.25;6.43;;;13.20;93.00;;;;;;5017863;28;21022;-67
2022/03/27 11:41:34;;;;;;;17.55;6.95;;;13.30;92.90;;;;;;5001302;28;20045;-67
2022/03/27 11:47:33;;;;;;;15.25;5.03;;;13.40;93.80;;;;;;4924876;29;20058;-65
2022/03/27 11:49:58;;;;;;;13.45;5.28;;;13.40;90.90;;;;;;5014645;28;20056;-66
2022/03/27 11:52:24;;;;;;;9.43;4.93;;;13.40;91.60;;;;;;5026942;28;20033;-66
2022/03/27 11:55:09;;;;;;;13.65;4.57;;;13.40;91.10;;;;;;5029003;28;20098;-66
2022/03/27 11:57:53;;;;;;;14.77;6.57;;;13.50;91.40;;;;;;5035578;28;20663;-66
2022/03/27 12:00:39;;;;;;;17.50;4.68;;;13.70;91.90;;;;;;5020929;28;20144;-66
2022/03/27 12:03:14;;;;;;;15.93;6.35;;;13.80;90.10;;;;;;5008449;28;20917;-66
2022/03/27 12:05:40;;;;;;;11.82;4.15;;;13.60;89.20;;;;;;5000213;28;20057;-66
2022/03/27 12:08:07;;;;;;;15.55;4.97;;;13.80;90.80;;;;;;4999098;28;20077;-67
2022/03/27 12:10:49;;;;;;;11.32;3.95;;;13.70;89.10;;;;;;5024269;28;20584;-66
2022/03/27 12:13:15;;;;;;;10.95;4.20;;;13.80;87.30;;;;;;5014276;28;20049;-66
2022/03/27 12:15:50;;;;;;;7.65;3.67;;;13.80;74.20;;;;;;5014604;28;20542;-66
2022/03/27 12:18:35;;;;;;;11.25;4.43;;;13.90;81.20;;;;;;5014537;28;20052;-66
2022/03/27 12:21:08;;;;;;;9.23;3.38;;;13.90;78.50;;;;;;5014929;28;20042;-66
2022/03/27 12:23:36;;;;;;;9.68;3.17;;;14.10;80.60;;;;;;5020912;28;20045;-66
2022/03/27 12:29:39;;;;;;;12.10;3.35;;;14.10;78.80;;;;;;5021183;28;20168;-66
2022/03/27 12:31:35;;;;;;;13.70;3.42;;;14.10;77.00;;;;;;5019234;28;20046;-66
2022/03/27 12:34:01;;;;;;;8.52;3.08;;;14.10;74.20;;;;;;5010017;28;20064;-66
2022/03/27 12:36:26;;;;;;;7.65;3.00;;;14.10;71.30;;;;;;5023766;28;20132;-66
2022/03/27 12:38:52;;;;;;;6.65;3.35;;;13.90;72.90;;;;;;5031184;28;20056;-66
2022/03/27 12:41:39;;;;;;;13.70;3.25;;;14.00;73.70;;;;;;5006188;28;20048;-66
2022/03/27 12:44:05;;;;;;;6.80;2.75;;;14.00;68.40;;;;;;4993114;28;20040;-66
2022/03/27 12:46:31;;;;;;;9.15;3.17;;;14.00;68.80;;;;;;5023667;28;20066;-66
2022/03/27 12:49:03;;;;;;;7.90;2.85;;;14.00;69.20;;;;;;5013955;28;20052;-66
2022/03/27 12:51:29;;;;;;;6.47;2.95;;;14.00;62.50;;;;;;4997625;28;20048;-66
2022/03/27 12:54:20;;;;;;;5.63;2.30;;;14.10;59.70;;;;;;4999687;28;20146;-66
2022/03/27 12:56:57;;;;;;;6.32;2.90;;;14.00;59.70;;;;;;5006902;28;20519;-66
2022/03/27 12:59:23;;;;;;;5.80;2.90;;;14.00;60.20;;;;;;5014146;28;20076;-66
2022/03/27 13:01:50;;;;;;;6.53;2.20;;;14.10;61.30;;;;;;4995600;28;20077;-66
2022/03/27 13:04:15;;;;;;;5.38;2.55;;;14.10;60.00;;;;;;5012011;28;20041;-66
2022/03/27 13:06:58;;;;;;;9.80;2.40;;;14.20;63.70;;;;;;5015242;28;20053;-66